首页
METAR-TAF:

METAR-TAF

机场 :

素叻他尼機場

素叻他尼, 泰国

纬度: 09-07N, 经度: 099-21E, 海拔: 10米

当前天气观测

该预报发布于31分钟前的11:00 UTC
风速8节,风向北转东北
温度 26°C
湿度 94%
气压 1011 hPa
能見度: 6000
少量云层高于1400英尺
散云层高于2000英尺
多云层高于10000英尺
小雨

METAR: VTSB 181100Z 03008KT 6000 -RA FEW014 SCT020 BKN100 26/25 Q1011

时间: 18:31 (11:31 UTC)

预报

该预报发布于6小时和31分钟前的05:00 UTC
预报有效从18日的 06点(UTC)到 19日的 06点(UTC)
风速10节,风向东北
能见度10公里或以上
散云层高于2000英尺
多云层高于10000英尺
短暂存在
从 18日的 06点(UTC)到 18日的 12点(UTC)
能見度: 5000
散云层高于1500英尺
阴天层高于10000英尺

TAF: VTSB 180500Z 1806/1906 05010KT 9999 SCT020 BKN100 TEMPO 1806/1812 5000 RA SCT015 OVC100

超过4000个机场的气象观测和天气预报(METAR&TAF报告)。

可查询的气象台以黄色和红色小点在地图上表示。

将鼠标移到小点上方,可查看气象台名称。

然后点击查看天气观测和预报。

如需切换地图:点击带黑十字的绿色按钮放大地图;点击带横线的绿色按钮缩小地图;或者点击绿色箭头查看邻近地区的地图。


METAR-TAF: